sensor_id;sensor_type;location;lat;lon;timestamp;temperature;humidity
23081;DHT22;11708;50.570;8.532;2022-09-13T00:00:41;14.80;99.90
23081;DHT22;11708;50.570;8.532;2022-09-13T00:03:08;14.80;99.90
23081;DHT22;11708;50.570;8.532;2022-09-13T00:05:35;14.80;99.90
23081;DHT22;11708;50.570;8.532;2022-09-13T00:08:01;14.70;99.90
23081;DHT22;11708;50.570;8.532;2022-09-13T00:10:26;14.80;99.90
23081;DHT22;11708;50.570;8.532;2022-09-13T00:12:53;14.80;99.90
23081;DHT22;11708;50.570;8.532;2022-09-13T00:15:19;14.80;99.90
23081;DHT22;11708;50.570;8.532;2022-09-13T00:17:45;14.70;99.90
23081;DHT22;11708;50.570;8.532;2022-09-13T00:20:11;14.70;99.90
23081;DHT22;11708;50.570;8.532;2022-09-13T00:22:36;14.60;99.90
23081;DHT22;11708;50.570;8.532;2022-09-13T00:25:06;14.60;99.90
23081;DHT22;11708;50.570;8.532;2022-09-13T00:27:33;14.60;99.90
23081;DHT22;11708;50.570;8.532;2022-09-13T00:29:59;14.60;99.90
23081;DHT22;11708;50.570;8.532;2022-09-13T00:32:24;14.60;99.90
23081;DHT22;11708;50.570;8.532;2022-09-13T00:34:50;14.60;99.90
23081;DHT22;11708;50.570;8.532;2022-09-13T00:37:16;14.50;99.90
23081;DHT22;11708;50.570;8.532;2022-09-13T00:39:41;14.50;99.90
23081;DHT22;11708;50.570;8.532;2022-09-13T00:42:13;14.50;99.90
23081;DHT22;11708;50.570;8.532;2022-09-13T00:45:00;14.50;99.90
23081;DHT22;11708;50.570;8.532;2022-09-13T00:53:00;14.40;99.90
23081;DHT22;11708;50.570;8.532;2022-09-13T00:55:34;14.40;99.90
23081;DHT22;11708;50.570;8.532;2022-09-13T00:58:07;14.40;99.90
23081;DHT22;11708;50.570;8.532;2022-09-13T01:00:34;14.30;99.90
23081;DHT22;11708;50.570;8.532;2022-09-13T01:03:04;14.30;99.90
23081;DHT22;11708;50.570;8.532;2022-09-13T01:05:49;14.20;99.90
23081;DHT22;11708;50.570;8.532;2022-09-13T01:08:15;14.10;99.90
23081;DHT22;11708;50.570;8.532;2022-09-13T01:10:46;14.10;99.90
23081;DHT22;11708;50.570;8.532;2022-09-13T01:13:31;14.00;99.90
23081;DHT22;11708;50.570;8.532;2022-09-13T01:15:57;14.20;99.90
23081;DHT22;11708;50.570;8.532;2022-09-13T01:18:24;14.00;99.90
23081;DHT22;11708;50.570;8.532;2022-09-13T01:24:03;13.90;99.90
23081;DHT22;11708;50.570;8.532;2022-09-13T01:34:55;13.90;99.90
23081;DHT22;11708;50.570;8.532;2022-09-13T01:40:33;13.80;99.90
23081;DHT22;11708;50.570;8.532;2022-09-13T01:43:26;13.80;99.90
23081;DHT22;11708;50.570;8.532;2022-09-13T01:46:18;13.90;99.90
23081;DHT22;11708;50.570;8.532;2022-09-13T01:52:41;13.80;99.90
23081;DHT22;11708;50.570;8.532;2022-09-13T01:55:20;13.90;99.90
23081;DHT22;11708;50.570;8.532;2022-09-13T02:00:18;14.10;99.90
23081;DHT22;11708;50.570;8.532;2022-09-13T02:03:04;13.90;99.90
23081;DHT22;11708;50.570;8.532;2022-09-13T02:05:38;13.90;99.90
23081;DHT22;11708;50.570;8.532;2022-09-13T02:08:25;13.80;99.90
23081;DHT22;11708;50.570;8.532;2022-09-13T02:10:59;13.70;99.90
23081;DHT22;11708;50.570;8.532;2022-09-13T02:13:34;13.90;99.90
23081;DHT22;11708;50.570;8.532;2022-09-13T02:16:06;13.80;99.90
23081;DHT22;11708;50.570;8.532;2022-09-13T02:18:39;13.60;99.90
23081;DHT22;11708;50.570;8.532;2022-09-13T02:21:17;13.60;99.90
23081;DHT22;11708;50.570;8.532;2022-09-13T02:23:49;13.60;99.90
23081;DHT22;11708;50.570;8.532;2022-09-13T02:26:17;13.60;99.90
23081;DHT22;11708;50.570;8.532;2022-09-13T02:28:49;13.60;99.90
23081;DHT22;11708;50.570;8.532;2022-09-13T02:31:19;13.60;99.90
23081;DHT22;11708;50.570;8.532;2022-09-13T02:33:52;13.50;99.90
23081;DHT22;11708;50.570;8.532;2022-09-13T02:36:23;13.50;99.90
23081;DHT22;11708;50.570;8.532;2022-09-13T02:39:02;13.50;99.90
23081;DHT22;11708;50.570;8.532;2022-09-13T02:41:51;13.50;99.90
23081;DHT22;11708;50.570;8.532;2022-09-13T02:44:32;13.50;99.90
23081;DHT22;11708;50.570;8.532;2022-09-13T02:50:02;13.50;99.90
23081;DHT22;11708;50.570;8.532;2022-09-13T02:55:14;13.40;99.90
23081;DHT22;11708;50.570;8.532;2022-09-13T03:00:13;13.40;99.90
23081;DHT22;11708;50.570;8.532;2022-09-13T03:02:39;13.40;99.90
23081;DHT22;11708;50.570;8.532;2022-09-13T03:05:07;13.40;99.90
23081;DHT22;11708;50.570;8.532;2022-09-13T03:07:32;13.40;99.90
23081;DHT22;11708;50.570;8.532;2022-09-13T03:10:05;13.40;99.90
23081;DHT22;11708;50.570;8.532;2022-09-13T03:23:58;13.50;99.90
23081;DHT22;11708;50.570;8.532;2022-09-13T03:29:25;13.50;99.90
23081;DHT22;11708;50.570;8.532;2022-09-13T03:37:17;13.70;99.90
23081;DHT22;11708;50.570;8.532;2022-09-13T03:39:56;13.70;99.90
23081;DHT22;11708;50.570;8.532;2022-09-13T03:42:31;13.70;99.90
23081;DHT22;11708;50.570;8.532;2022-09-13T03:44:57;13.70;99.90
23081;DHT22;11708;50.570;8.532;2022-09-13T03:47:26;13.70;99.90
23081;DHT22;11708;50.570;8.532;2022-09-13T03:49:53;13.70;99.90
23081;DHT22;11708;50.570;8.532;2022-09-13T03:52:20;13.80;99.90
23081;DHT22;11708;50.570;8.532;2022-09-13T03:54:46;13.70;99.90
23081;DHT22;11708;50.570;8.532;2022-09-13T03:57:17;13.80;99.90
23081;DHT22;11708;50.570;8.532;2022-09-13T03:59:55;13.80;99.90
23081;DHT22;11708;50.570;8.532;2022-09-13T04:02:23;14.70;99.90
23081;DHT22;11708;50.570;8.532;2022-09-13T04:04:49;13.80;99.90
23081;DHT22;11708;50.570;8.532;2022-09-13T04:07:18;13.80;99.90
23081;DHT22;11708;50.570;8.532;2022-09-13T04:09:44;13.80;99.90
23081;DHT22;11708;50.570;8.532;2022-09-13T04:12:11;13.80;99.90
23081;DHT22;11708;50.570;8.532;2022-09-13T04:14:38;13.80;99.90
23081;DHT22;11708;50.570;8.532;2022-09-13T04:17:04;13.90;99.90
23081;DHT22;11708;50.570;8.532;2022-09-13T04:19:29;13.80;99.90
23081;DHT22;11708;50.570;8.532;2022-09-13T04:21:56;13.80;99.90
23081;DHT22;11708;50.570;8.532;2022-09-13T04:24:27;13.80;99.90
23081;DHT22;11708;50.570;8.532;2022-09-13T04:26:54;13.80;99.90
23081;DHT22;11708;50.570;8.532;2022-09-13T04:29:23;13.90;99.90
23081;DHT22;11708;50.570;8.532;2022-09-13T04:31:51;13.90;99.90
23081;DHT22;11708;50.570;8.532;2022-09-13T04:34:17;14.00;99.90
23081;DHT22;11708;50.570;8.532;2022-09-13T04:36:44;14.00;99.90
23081;DHT22;11708;50.570;8.532;2022-09-13T04:39:10;14.00;99.90
23081;DHT22;11708;50.570;8.532;2022-09-13T04:41:39;14.00;99.90
23081;DHT22;11708;50.570;8.532;2022-09-13T04:44:04;14.70;99.90
23081;DHT22;11708;50.570;8.532;2022-09-13T04:46:30;14.00;99.90
23081;DHT22;11708;50.570;8.532;2022-09-13T04:48:55;14.60;99.90
23081;DHT22;11708;50.570;8.532;2022-09-13T04:51:21;14.00;99.90
23081;DHT22;11708;50.570;8.532;2022-09-13T04:53:51;14.10;99.90
23081;DHT22;11708;50.570;8.532;2022-09-13T04:56:18;14.00;99.90
23081;DHT22;11708;50.570;8.532;2022-09-13T04:58:44;15.00;99.90
23081;DHT22;11708;50.570;8.532;2022-09-13T05:01:10;14.10;99.90
23081;DHT22;11708;50.570;8.532;2022-09-13T05:03:36;14.10;99.90
23081;DHT22;11708;50.570;8.532;2022-09-13T05:06:07;14.00;99.90
23081;DHT22;11708;50.570;8.532;2022-09-13T05:08:34;14.10;99.90
23081;DHT22;11708;50.570;8.532;2022-09-13T05:11:00;14.20;99.90
23081;DHT22;11708;50.570;8.532;2022-09-13T05:13:26;14.20;99.90
23081;DHT22;11708;50.570;8.532;2022-09-13T05:16:05;14.20;99.90
23081;DHT22;11708;50.570;8.532;2022-09-13T05:18:33;14.20;99.90
23081;DHT22;11708;50.570;8.532;2022-09-13T05:21:00;14.20;99.90
23081;DHT22;11708;50.570;8.532;2022-09-13T05:23:27;14.40;99.90
23081;DHT22;11708;50.570;8.532;2022-09-13T05:25:53;14.30;99.90
23081;DHT22;11708;50.570;8.532;2022-09-13T05:28:20;14.20;99.90
23081;DHT22;11708;50.570;8.532;2022-09-13T05:31:05;14.30;99.90
23081;DHT22;11708;50.570;8.532;2022-09-13T05:33:32;14.30;99.90
23081;DHT22;11708;50.570;8.532;2022-09-13T05:35:58;14.50;99.90
23081;DHT22;11708;50.570;8.532;2022-09-13T05:38:24;14.40;99.90
23081;DHT22;11708;50.570;8.532;2022-09-13T05:40:54;14.90;99.90
23081;DHT22;11708;50.570;8.532;2022-09-13T05:43:21;14.50;99.90
23081;DHT22;11708;50.570;8.532;2022-09-13T05:45:46;14.50;99.90
23081;DHT22;11708;50.570;8.532;2022-09-13T05:48:12;14.50;99.90
23081;DHT22;11708;50.570;8.532;2022-09-13T05:50:37;14.40;99.90
23081;DHT22;11708;50.570;8.532;2022-09-13T05:53:03;14.50;99.90
23081;DHT22;11708;50.570;8.532;2022-09-13T05:55:29;14.50;99.90
23081;DHT22;11708;50.570;8.532;2022-09-13T05:57:55;14.50;99.90
23081;DHT22;11708;50.570;8.532;2022-09-13T06:00:21;14.50;99.90
23081;DHT22;11708;50.570;8.532;2022-09-13T06:02:48;14.40;99.90
23081;DHT22;11708;50.570;8.532;2022-09-13T06:05:14;14.40;99.90
23081;DHT22;11708;50.570;8.532;2022-09-13T06:07:40;14.40;99.90
23081;DHT22;11708;50.570;8.532;2022-09-13T06:10:09;15.10;99.90
23081;DHT22;11708;50.570;8.532;2022-09-13T06:12:35;14.40;99.90
23081;DHT22;11708;50.570;8.532;2022-09-13T06:15:01;14.40;99.90
23081;DHT22;11708;50.570;8.532;2022-09-13T06:17:27;14.70;99.90
23081;DHT22;11708;50.570;8.532;2022-09-13T06:19:53;14.50;99.90
23081;DHT22;11708;50.570;8.532;2022-09-13T06:22:18;14.50;99.90
23081;DHT22;11708;50.570;8.532;2022-09-13T06:24:44;14.50;99.90
23081;DHT22;11708;50.570;8.532;2022-09-13T06:27:09;14.60;99.90
23081;DHT22;11708;50.570;8.532;2022-09-13T06:29:35;14.60;99.90
23081;DHT22;11708;50.570;8.532;2022-09-13T06:32:04;14.60;99.90
23081;DHT22;11708;50.570;8.532;2022-09-13T06:34:30;14.60;99.90
23081;DHT22;11708;50.570;8.532;2022-09-13T06:39:22;14.70;99.90
23081;DHT22;11708;50.570;8.532;2022-09-13T06:41:47;14.70;99.90
23081;DHT22;11708;50.570;8.532;2022-09-13T06:44:13;14.70;99.90
23081;DHT22;11708;50.570;8.532;2022-09-13T06:46:39;14.70;99.90
23081;DHT22;11708;50.570;8.532;2022-09-13T06:49:06;14.70;99.90
23081;DHT22;11708;50.570;8.532;2022-09-13T06:51:33;14.70;99.90
23081;DHT22;11708;50.570;8.532;2022-09-13T06:54:00;14.70;99.90
23081;DHT22;11708;50.570;8.532;2022-09-13T06:56:31;14.80;99.90
23081;DHT22;11708;50.570;8.532;2022-09-13T06:58:59;14.80;99.90
23081;DHT22;11708;50.570;8.532;2022-09-13T07:01:30;14.80;99.90
23081;DHT22;11708;50.570;8.532;2022-09-13T07:04:00;14.90;99.90
23081;DHT22;11708;50.570;8.532;2022-09-13T07:06:27;14.90;99.90
23081;DHT22;11708;50.570;8.532;2022-09-13T07:08:56;15.40;99.90
23081;DHT22;11708;50.570;8.532;2022-09-13T07:11:24;15.00;99.90
23081;DHT22;11708;50.570;8.532;2022-09-13T07:13:54;15.00;99.90
23081;DHT22;11708;50.570;8.532;2022-09-13T07:16:22;15.10;99.90
23081;DHT22;11708;50.570;8.532;2022-09-13T07:18:56;15.10;99.90
23081;DHT22;11708;50.570;8.532;2022-09-13T07:21:22;15.20;99.90
23081;DHT22;11708;50.570;8.532;2022-09-13T07:23:49;15.30;99.90
23081;DHT22;11708;50.570;8.532;2022-09-13T07:26:15;15.30;99.90
23081;DHT22;11708;50.570;8.532;2022-09-13T07:28:43;15.60;99.90
23081;DHT22;11708;50.570;8.532;2022-09-13T07:31:11;15.50;99.90
23081;DHT22;11708;50.570;8.532;2022-09-13T07:33:39;15.50;99.90
23081;DHT22;11708;50.570;8.532;2022-09-13T07:36:05;15.70;99.90
23081;DHT22;11708;50.570;8.532;2022-09-13T07:38:42;15.60;99.90
23081;DHT22;11708;50.570;8.532;2022-09-13T07:41:12;15.60;99.90
23081;DHT22;11708;50.570;8.532;2022-09-13T07:43:38;15.60;99.90
23081;DHT22;11708;50.570;8.532;2022-09-13T07:46:06;15.90;99.90
23081;DHT22;11708;50.570;8.532;2022-09-13T07:48:34;15.60;99.90
23081;DHT22;11708;50.570;8.532;2022-09-13T07:51:05;15.70;99.90
23081;DHT22;11708;50.570;8.532;2022-09-13T07:53:32;15.70;99.90
23081;DHT22;11708;50.570;8.532;2022-09-13T07:56:05;16.00;99.90
23081;DHT22;11708;50.570;8.532;2022-09-13T07:58:32;15.80;99.90
23081;DHT22;11708;50.570;8.532;2022-09-13T08:01:28;15.90;99.90
23081;DHT22;11708;50.570;8.532;2022-09-13T08:03:59;16.00;99.90
23081;DHT22;11708;50.570;8.532;2022-09-13T08:06:28;16.10;99.90
23081;DHT22;11708;50.570;8.532;2022-09-13T08:08:54;16.20;99.90
23081;DHT22;11708;50.570;8.532;2022-09-13T08:11:22;16.30;99.90
23081;DHT22;11708;50.570;8.532;2022-09-13T08:13:48;16.50;99.90
23081;DHT22;11708;50.570;8.532;2022-09-13T08:16:17;16.80;99.90
23081;DHT22;11708;50.570;8.532;2022-09-13T08:18:44;16.60;99.90
23081;DHT22;11708;50.570;8.532;2022-09-13T08:21:10;16.70;99.90
23081;DHT22;11708;50.570;8.532;2022-09-13T08:23:36;16.80;99.90
23081;DHT22;11708;50.570;8.532;2022-09-13T08:26:02;17.10;99.90
23081;DHT22;11708;50.570;8.532;2022-09-13T08:28:28;16.90;99.90
23081;DHT22;11708;50.570;8.532;2022-09-13T08:30:54;17.10;99.90
23081;DHT22;11708;50.570;8.532;2022-09-13T08:33:20;17.20;99.90
23081;DHT22;11708;50.570;8.532;2022-09-13T08:35:50;17.20;99.90
23081;DHT22;11708;50.570;8.532;2022-09-13T08:38:17;17.80;99.90
23081;DHT22;11708;50.570;8.532;2022-09-13T08:40:47;18.00;99.90
23081;DHT22;11708;50.570;8.532;2022-09-13T08:46:04;17.70;99.90
23081;DHT22;11708;50.570;8.532;2022-09-13T08:48:36;17.70;99.90
23081;DHT22;11708;50.570;8.532;2022-09-13T08:51:05;18.20;99.90
23081;DHT22;11708;50.570;8.532;2022-09-13T08:53:44;18.30;99.90
23081;DHT22;11708;50.570;8.532;2022-09-13T08:56:19;18.40;99.90
23081;DHT22;11708;50.570;8.532;2022-09-13T09:06:39;18.60;99.90
23081;DHT22;11708;50.570;8.532;2022-09-13T09:09:18;18.70;99.90
23081;DHT22;11708;50.570;8.532;2022-09-13T09:12:00;18.80;99.90
23081;DHT22;11708;50.570;8.532;2022-09-13T09:14:40;18.90;99.90
23081;DHT22;11708;50.570;8.532;2022-09-13T09:17:21;19.00;99.90
23081;DHT22;11708;50.570;8.532;2022-09-13T09:19:53;19.10;99.90
23081;DHT22;11708;50.570;8.532;2022-09-13T09:22:20;19.20;99.90
23081;DHT22;11708;50.570;8.532;2022-09-13T09:24:52;19.30;99.90
23081;DHT22;11708;50.570;8.532;2022-09-13T09:27:19;19.40;99.90
23081;DHT22;11708;50.570;8.532;2022-09-13T09:29:47;19.60;99.90
23081;DHT22;11708;50.570;8.532;2022-09-13T09:32:41;19.50;99.90
23081;DHT22;11708;50.570;8.532;2022-09-13T09:38:22;19.70;99.90
23081;DHT22;11708;50.570;8.532;2022-09-13T09:40:51;19.80;99.90
23081;DHT22;11708;50.570;8.532;2022-09-13T09:43:32;20.00;99.90
23081;DHT22;11708;50.570;8.532;2022-09-13T09:46:02;20.20;99.90
23081;DHT22;11708;50.570;8.532;2022-09-13T09:48:36;20.00;99.90
23081;DHT22;11708;50.570;8.532;2022-09-13T09:51:04;20.20;99.90
23081;DHT22;11708;50.570;8.532;2022-09-13T09:53:33;20.30;99.90
23081;DHT22;11708;50.570;8.532;2022-09-13T09:56:23;20.40;99.90
23081;DHT22;11708;50.570;8.532;2022-09-13T09:58:50;20.30;99.90
23081;DHT22;11708;50.570;8.532;2022-09-13T10:01:27;20.30;99.90
23081;DHT22;11708;50.570;8.532;2022-09-13T10:04:18;20.40;99.90
23081;DHT22;11708;50.570;8.532;2022-09-13T10:06:44;20.50;99.90
23081;DHT22;11708;50.570;8.532;2022-09-13T10:09:17;20.50;99.90
23081;DHT22;11708;50.570;8.532;2022-09-13T10:11:56;20.40;99.90
23081;DHT22;11708;50.570;8.532;2022-09-13T10:14:41;20.50;99.90
23081;DHT22;11708;50.570;8.532;2022-09-13T10:17:20;20.70;99.90
23081;DHT22;11708;50.570;8.532;2022-09-13T10:19:59;20.80;99.90
23081;DHT22;11708;50.570;8.532;2022-09-13T10:22:27;21.00;99.90
23081;DHT22;11708;50.570;8.532;2022-09-13T10:24:53;21.10;99.90
23081;DHT22;11708;50.570;8.532;2022-09-13T10:27:31;21.20;99.90
23081;DHT22;11708;50.570;8.532;2022-09-13T10:29:59;21.40;99.90
23081;DHT22;11708;50.570;8.532;2022-09-13T10:32:27;21.70;99.90
23081;DHT22;11708;50.570;8.532;2022-09-13T10:34:55;21.40;99.90
23081;DHT22;11708;50.570;8.532;2022-09-13T10:37:28;21.70;99.90
23081;DHT22;11708;50.570;8.532;2022-09-13T10:40:06;21.70;99.90
23081;DHT22;11708;50.570;8.532;2022-09-13T10:42:34;21.80;99.90
23081;DHT22;11708;50.570;8.532;2022-09-13T10:45:06;21.90;99.90
23081;DHT22;11708;50.570;8.532;2022-09-13T10:50:25;22.20;99.90
23081;DHT22;11708;50.570;8.532;2022-09-13T10:52:53;22.30;99.90
23081;DHT22;11708;50.570;8.532;2022-09-13T10:57:49;22.50;99.90
23081;DHT22;11708;50.570;8.532;2022-09-13T11:00:21;22.80;99.90
23081;DHT22;11708;50.570;8.532;2022-09-13T11:03:10;23.00;99.90
23081;DHT22;11708;50.570;8.532;2022-09-13T11:08:34;23.30;99.90
23081;DHT22;11708;50.570;8.532;2022-09-13T11:14:00;23.50;99.90
23081;DHT22;11708;50.570;8.532;2022-09-13T11:16:52;23.90;99.90
23081;DHT22;11708;50.570;8.532;2022-09-13T11:30:22;25.70;99.90
23081;DHT22;11708;50.570;8.532;2022-09-13T11:40:57;25.60;99.90
23081;DHT22;11708;50.570;8.532;2022-09-13T11:47:02;25.40;99.90
23081;DHT22;11708;50.570;8.532;2022-09-13T11:55:33;25.20;99.90
23081;DHT22;11708;50.570;8.532;2022-09-13T11:58:02;25.30;99.90
23081;DHT22;11708;50.570;8.532;2022-09-13T12:00:35;25.30;99.90
23081;DHT22;11708;50.570;8.532;2022-09-13T12:05:58;25.30;99.90
23081;DHT22;11708;50.570;8.532;2022-09-13T12:08:33;25.20;99.90
23081;DHT22;11708;50.570;8.532;2022-09-13T12:13:52;25.00;99.90
23081;DHT22;11708;50.570;8.532;2022-09-13T12:16:30;24.90;99.90
23081;DHT22;11708;50.570;8.532;2022-09-13T12:21:52;24.80;99.90
23081;DHT22;11708;50.570;8.532;2022-09-13T12:27:09;24.70;99.90
23081;DHT22;11708;50.570;8.532;2022-09-13T12:29:46;24.70;99.90
23081;DHT22;11708;50.570;8.532;2022-09-13T12:32:15;24.80;99.90
23081;DHT22;11708;50.570;8.532;2022-09-13T12:34:57;24.80;99.90
23081;DHT22;11708;50.570;8.532;2022-09-13T12:37:39;24.90;99.90
23081;DHT22;11708;50.570;8.532;2022-09-13T12:42:55;25.50;99.90
23081;DHT22;11708;50.570;8.532;2022-09-13T12:45:41;25.90;99.90
23081;DHT22;11708;50.570;8.532;2022-09-13T12:54:17;27.40;99.90
23081;DHT22;11708;50.570;8.532;2022-09-13T12:59:48;28.10;99.90
23081;DHT22;11708;50.570;8.532;2022-09-13T13:02:33;28.30;99.90
23081;DHT22;11708;50.570;8.532;2022-09-13T13:05:04;28.80;99.90
23081;DHT22;11708;50.570;8.532;2022-09-13T13:07:33;29.30;99.90
23081;DHT22;11708;50.570;8.532;2022-09-13T13:09:59;29.30;98.90
23081;DHT22;11708;50.570;8.532;2022-09-13T13:12:38;29.40;98.20
23081;DHT22;11708;50.570;8.532;2022-09-13T13:15:52;29.20;97.30
23081;DHT22;11708;50.570;8.532;2022-09-13T13:17:55;28.90;98.20
23081;DHT22;11708;50.570;8.532;2022-09-13T13:23:27;28.40;99.20
23081;DHT22;11708;50.570;8.532;2022-09-13T13:29:21;27.90;99.70
23081;DHT22;11708;50.570;8.532;2022-09-13T13:34:28;28.00;99.70
23081;DHT22;11708;50.570;8.532;2022-09-13T13:36:59;27.90;99.60
23081;DHT22;11708;50.570;8.532;2022-09-13T13:59:48;27.20;99.90
23081;DHT22;11708;50.570;8.532;2022-09-13T14:02:18;27.20;99.90
23081;DHT22;11708;50.570;8.532;2022-09-13T14:10:50;28.00;99.90
23081;DHT22;11708;50.570;8.532;2022-09-13T14:18:56;28.10;99.90
23081;DHT22;11708;50.570;8.532;2022-09-13T14:21:30;28.00;99.90
23081;DHT22;11708;50.570;8.532;2022-09-13T14:24:16;28.00;99.90
23081;DHT22;11708;50.570;8.532;2022-09-13T14:26:51;27.90;99.90
23081;DHT22;11708;50.570;8.532;2022-09-13T14:29:19;27.60;99.90
23081;DHT22;11708;50.570;8.532;2022-09-13T14:31:47;27.40;99.90
23081;DHT22;11708;50.570;8.532;2022-09-13T14:34:34;27.10;99.90
23081;DHT22;11708;50.570;8.532;2022-09-13T14:37:05;27.00;99.90
23081;DHT22;11708;50.570;8.532;2022-09-13T14:39:56;27.00;99.90
23081;DHT22;11708;50.570;8.532;2022-09-13T14:42:22;27.00;99.90
23081;DHT22;11708;50.570;8.532;2022-09-13T14:44:48;27.00;99.90
23081;DHT22;11708;50.570;8.532;2022-09-13T14:47:41;27.10;99.90
23081;DHT22;11708;50.570;8.532;2022-09-13T14:50:17;26.90;99.90
23081;DHT22;11708;50.570;8.532;2022-09-13T14:52:50;26.60;99.90
23081;DHT22;11708;50.570;8.532;2022-09-13T14:55:23;26.50;99.90
23081;DHT22;11708;50.570;8.532;2022-09-13T14:57:57;26.40;99.90
23081;DHT22;11708;50.570;8.532;2022-09-13T15:00:24;26.30;99.90
23081;DHT22;11708;50.570;8.532;2022-09-13T15:02:52;26.20;99.90
23081;DHT22;11708;50.570;8.532;2022-09-13T15:05:21;26.30;99.90
23081;DHT22;11708;50.570;8.532;2022-09-13T15:07:47;26.30;99.90
23081;DHT22;11708;50.570;8.532;2022-09-13T15:15:37;26.30;99.90
23081;DHT22;11708;50.570;8.532;2022-09-13T15:20:59;26.50;99.90
23081;DHT22;11708;50.570;8.532;2022-09-13T15:23:40;26.70;99.90
23081;DHT22;11708;50.570;8.532;2022-09-13T15:26:23;26.90;99.90
23081;DHT22;11708;50.570;8.532;2022-09-13T15:28:55;26.70;99.90
23081;DHT22;11708;50.570;8.532;2022-09-13T15:31:28;26.70;99.90
23081;DHT22;11708;50.570;8.532;2022-09-13T15:36:46;26.50;99.90
23081;DHT22;11708;50.570;8.532;2022-09-13T15:39:18;26.30;99.90
23081;DHT22;11708;50.570;8.532;2022-09-13T15:41:58;26.30;99.90
23081;DHT22;11708;50.570;8.532;2022-09-13T15:44:28;26.40;99.90
23081;DHT22;11708;50.570;8.532;2022-09-13T15:47:01;26.30;99.90
23081;DHT22;11708;50.570;8.532;2022-09-13T15:49:30;26.10;99.90
23081;DHT22;11708;50.570;8.532;2022-09-13T15:52:03;25.90;99.90
23081;DHT22;11708;50.570;8.532;2022-09-13T15:54:40;25.70;99.90
23081;DHT22;11708;50.570;8.532;2022-09-13T15:59:42;25.40;99.90
23081;DHT22;11708;50.570;8.532;2022-09-13T16:02:21;25.30;99.90
23081;DHT22;11708;50.570;8.532;2022-09-13T16:04:47;25.00;99.90
23081;DHT22;11708;50.570;8.532;2022-09-13T16:07:13;24.80;99.90
23081;DHT22;11708;50.570;8.532;2022-09-13T16:09:39;24.60;99.90
23081;DHT22;11708;50.570;8.532;2022-09-13T16:12:05;24.40;99.90
23081;DHT22;11708;50.570;8.532;2022-09-13T16:14:30;24.30;99.90
23081;DHT22;11708;50.570;8.532;2022-09-13T16:17:05;24.30;99.90
23081;DHT22;11708;50.570;8.532;2022-09-13T16:19:31;24.20;99.90
23081;DHT22;11708;50.570;8.532;2022-09-13T16:21:57;24.20;99.90
23081;DHT22;11708;50.570;8.532;2022-09-13T16:24:22;24.20;99.90
23081;DHT22;11708;50.570;8.532;2022-09-13T16:26:48;24.00;99.90
23081;DHT22;11708;50.570;8.532;2022-09-13T16:29:14;23.90;99.90
23081;DHT22;11708;50.570;8.532;2022-09-13T16:31:40;23.80;99.90
23081;DHT22;11708;50.570;8.532;2022-09-13T16:34:05;23.80;99.90
23081;DHT22;11708;50.570;8.532;2022-09-13T16:36:31;23.70;99.90
23081;DHT22;11708;50.570;8.532;2022-09-13T16:38:58;23.80;99.90
23081;DHT22;11708;50.570;8.532;2022-09-13T16:41:24;23.60;99.90
23081;DHT22;11708;50.570;8.532;2022-09-13T16:43:50;23.50;99.90
23081;DHT22;11708;50.570;8.532;2022-09-13T16:46:16;23.30;99.90
23081;DHT22;11708;50.570;8.532;2022-09-13T16:48:42;23.30;99.90
23081;DHT22;11708;50.570;8.532;2022-09-13T16:51:09;23.30;99.90
23081;DHT22;11708;50.570;8.532;2022-09-13T16:53:38;23.30;99.90
23081;DHT22;11708;50.570;8.532;2022-09-13T16:56:10;23.30;99.90
23081;DHT22;11708;50.570;8.532;2022-09-13T16:58:37;23.10;99.90
23081;DHT22;11708;50.570;8.532;2022-09-13T17:01:08;23.10;99.90
23081;DHT22;11708;50.570;8.532;2022-09-13T17:03:35;23.10;99.90
23081;DHT22;11708;50.570;8.532;2022-09-13T17:06:09;22.70;99.90
23081;DHT22;11708;50.570;8.532;2022-09-13T17:08:37;22.90;99.90
23081;DHT22;11708;50.570;8.532;2022-09-13T17:11:08;22.80;99.90
23081;DHT22;11708;50.570;8.532;2022-09-13T17:13:36;22.80;99.90
23081;DHT22;11708;50.570;8.532;2022-09-13T17:16:02;22.50;99.90
23081;DHT22;11708;50.570;8.532;2022-09-13T17:18:28;22.70;99.90
23081;DHT22;11708;50.570;8.532;2022-09-13T17:20:54;22.60;99.90
23081;DHT22;11708;50.570;8.532;2022-09-13T17:23:19;22.20;99.90
23081;DHT22;11708;50.570;8.532;2022-09-13T17:25:47;22.50;99.90
23081;DHT22;11708;50.570;8.532;2022-09-13T17:28:14;22.40;99.90
23081;DHT22;11708;50.570;8.532;2022-09-13T17:30:40;22.50;99.90
23081;DHT22;11708;50.570;8.532;2022-09-13T17:33:06;22.40;99.90
23081;DHT22;11708;50.570;8.532;2022-09-13T17:35:33;22.40;99.90
23081;DHT22;11708;50.570;8.532;2022-09-13T17:37:59;22.30;99.90
23081;DHT22;11708;50.570;8.532;2022-09-13T17:40:26;22.50;99.90
23081;DHT22;11708;50.570;8.532;2022-09-13T17:42:52;22.10;99.90
23081;DHT22;11708;50.570;8.532;2022-09-13T17:45:17;22.00;99.90
23081;DHT22;11708;50.570;8.532;2022-09-13T17:47:43;21.90;99.90
23081;DHT22;11708;50.570;8.532;2022-09-13T17:50:09;21.80;99.90
23081;DHT22;11708;50.570;8.532;2022-09-13T17:52:35;22.20;99.90
23081;DHT22;11708;50.570;8.532;2022-09-13T17:55:02;21.80;99.90
23081;DHT22;11708;50.570;8.532;2022-09-13T17:57:28;21.40;99.90
23081;DHT22;11708;50.570;8.532;2022-09-13T17:59:54;21.40;99.90
23081;DHT22;11708;50.570;8.532;2022-09-13T18:02:21;21.30;99.90
23081;DHT22;11708;50.570;8.532;2022-09-13T18:04:50;21.20;99.90
23081;DHT22;11708;50.570;8.532;2022-09-13T18:07:16;21.30;99.90
23081;DHT22;11708;50.570;8.532;2022-09-13T18:09:42;21.00;99.90
23081;DHT22;11708;50.570;8.532;2022-09-13T18:12:08;21.50;99.90
23081;DHT22;11708;50.570;8.532;2022-09-13T18:14:34;20.90;99.90
23081;DHT22;11708;50.570;8.532;2022-09-13T18:17:00;20.80;99.90
23081;DHT22;11708;50.570;8.532;2022-09-13T18:19:25;20.80;99.90
23081;DHT22;11708;50.570;8.532;2022-09-13T18:21:52;20.50;99.90
23081;DHT22;11708;50.570;8.532;2022-09-13T18:24:18;20.70;99.90
23081;DHT22;11708;50.570;8.532;2022-09-13T18:26:44;20.60;99.90
23081;DHT22;11708;50.570;8.532;2022-09-13T18:29:11;20.50;99.90
23081;DHT22;11708;50.570;8.532;2022-09-13T18:31:38;20.70;99.90
23081;DHT22;11708;50.570;8.532;2022-09-13T18:34:09;20.50;99.90
23081;DHT22;11708;50.570;8.532;2022-09-13T18:36:36;20.40;99.90
23081;DHT22;11708;50.570;8.532;2022-09-13T18:39:03;20.40;99.90
23081;DHT22;11708;50.570;8.532;2022-09-13T18:41:37;20.30;99.90
23081;DHT22;11708;50.570;8.532;2022-09-13T18:44:08;20.30;99.90
23081;DHT22;11708;50.570;8.532;2022-09-13T18:46:34;21.00;99.90
23081;DHT22;11708;50.570;8.532;2022-09-13T18:49:00;20.30;99.90
23081;DHT22;11708;50.570;8.532;2022-09-13T18:51:29;20.00;99.90
23081;DHT22;11708;50.570;8.532;2022-09-13T18:53:56;20.20;99.90
23081;DHT22;11708;50.570;8.532;2022-09-13T18:56:23;20.20;99.90